sensor_id;sensor_type;location;lat;lon;timestamp;temperature;humidity
30399;DHT22;17195;50.838;7.214;2023-03-01T00:01:13;-2.20;99.90
30399;DHT22;17195;50.838;7.214;2023-03-01T00:03:39;-2.20;99.90
30399;DHT22;17195;50.838;7.214;2023-03-01T00:06:05;-2.30;99.90
30399;DHT22;17195;50.838;7.214;2023-03-01T00:08:31;-2.30;99.90
30399;DHT22;17195;50.838;7.214;2023-03-01T00:11:10;-2.40;99.90
30399;DHT22;17195;50.838;7.214;2023-03-01T00:13:37;-2.40;99.90
30399;DHT22;17195;50.838;7.214;2023-03-01T00:16:04;-2.40;99.90
30399;DHT22;17195;50.838;7.214;2023-03-01T00:18:30;-2.40;99.90
30399;DHT22;17195;50.838;7.214;2023-03-01T00:20:56;-2.40;99.90
30399;DHT22;17195;50.838;7.214;2023-03-01T00:23:22;-2.40;99.90
30399;DHT22;17195;50.838;7.214;2023-03-01T00:25:47;-2.50;99.90
30399;DHT22;17195;50.838;7.214;2023-03-01T00:28:13;-2.50;99.90
30399;DHT22;17195;50.838;7.214;2023-03-01T00:30:39;-2.50;99.90
30399;DHT22;17195;50.838;7.214;2023-03-01T00:33:04;-2.50;99.90
30399;DHT22;17195;50.838;7.214;2023-03-01T00:35:32;-2.50;99.90
30399;DHT22;17195;50.838;7.214;2023-03-01T00:37:58;-2.50;99.90
30399;DHT22;17195;50.838;7.214;2023-03-01T00:40:24;-2.60;99.90
30399;DHT22;17195;50.838;7.214;2023-03-01T00:42:50;-2.60;99.90
30399;DHT22;17195;50.838;7.214;2023-03-01T00:45:15;-2.60;99.90
30399;DHT22;17195;50.838;7.214;2023-03-01T00:47:41;-2.60;99.90
30399;DHT22;17195;50.838;7.214;2023-03-01T00:50:07;-2.60;99.90
30399;DHT22;17195;50.838;7.214;2023-03-01T00:52:33;-2.60;99.90
30399;DHT22;17195;50.838;7.214;2023-03-01T00:54:59;-2.60;99.90
30399;DHT22;17195;50.838;7.214;2023-03-01T00:57:24;-2.60;99.90
30399;DHT22;17195;50.838;7.214;2023-03-01T00:59:50;-2.60;99.90
30399;DHT22;17195;50.838;7.214;2023-03-01T01:02:18;-2.60;99.90
30399;DHT22;17195;50.838;7.214;2023-03-01T01:04:43;-2.60;99.90
30399;DHT22;17195;50.838;7.214;2023-03-01T01:07:09;-2.60;99.90
30399;DHT22;17195;50.838;7.214;2023-03-01T01:09:35;-2.70;99.90
30399;DHT22;17195;50.838;7.214;2023-03-01T01:12:01;-2.70;99.90
30399;DHT22;17195;50.838;7.214;2023-03-01T01:14:26;-2.70;99.90
30399;DHT22;17195;50.838;7.214;2023-03-01T01:16:52;-2.70;99.90
30399;DHT22;17195;50.838;7.214;2023-03-01T01:19:17;-2.80;99.90
30399;DHT22;17195;50.838;7.214;2023-03-01T01:21:43;-2.80;99.90
30399;DHT22;17195;50.838;7.214;2023-03-01T01:24:09;-2.70;99.90
30399;DHT22;17195;50.838;7.214;2023-03-01T01:26:34;-2.80;99.90
30399;DHT22;17195;50.838;7.214;2023-03-01T01:29:02;-2.80;99.90
30399;DHT22;17195;50.838;7.214;2023-03-01T01:31:29;-2.70;99.90
30399;DHT22;17195;50.838;7.214;2023-03-01T01:33:55;-2.70;99.90
30399;DHT22;17195;50.838;7.214;2023-03-01T01:36:21;-2.80;99.90
30399;DHT22;17195;50.838;7.214;2023-03-01T01:38:47;-2.80;99.90
30399;DHT22;17195;50.838;7.214;2023-03-01T01:41:14;-2.90;99.90
30399;DHT22;17195;50.838;7.214;2023-03-01T01:43:41;-2.90;99.90
30399;DHT22;17195;50.838;7.214;2023-03-01T01:46:21;-3.00;99.90
30399;DHT22;17195;50.838;7.214;2023-03-01T01:48:54;-2.90;99.90
30399;DHT22;17195;50.838;7.214;2023-03-01T01:51:25;-2.90;99.90
30399;DHT22;17195;50.838;7.214;2023-03-01T01:53:58;-3.00;99.90
30399;DHT22;17195;50.838;7.214;2023-03-01T01:56:26;-3.00;99.90
30399;DHT22;17195;50.838;7.214;2023-03-01T01:58:54;-3.00;99.90
30399;DHT22;17195;50.838;7.214;2023-03-01T02:01:20;-3.00;99.90
30399;DHT22;17195;50.838;7.214;2023-03-01T02:03:46;-3.10;99.90
30399;DHT22;17195;50.838;7.214;2023-03-01T02:06:26;-3.10;99.90
30399;DHT22;17195;50.838;7.214;2023-03-01T02:08:57;-3.10;99.90
30399;DHT22;17195;50.838;7.214;2023-03-01T02:11:23;-3.20;99.90
30399;DHT22;17195;50.838;7.214;2023-03-01T02:13:49;-3.20;99.90
30399;DHT22;17195;50.838;7.214;2023-03-01T02:16:16;-3.20;99.90
30399;DHT22;17195;50.838;7.214;2023-03-01T02:18:42;-3.30;99.90
30399;DHT22;17195;50.838;7.214;2023-03-01T02:21:37;-3.30;99.90
30399;DHT22;17195;50.838;7.214;2023-03-01T02:24:31;-3.30;99.90
30399;DHT22;17195;50.838;7.214;2023-03-01T02:26:58;-3.30;99.90
30399;DHT22;17195;50.838;7.214;2023-03-01T02:29:26;-3.20;99.90
30399;DHT22;17195;50.838;7.214;2023-03-01T02:31:56;-3.20;99.90
30399;DHT22;17195;50.838;7.214;2023-03-01T02:34:24;-3.20;99.90
30399;DHT22;17195;50.838;7.214;2023-03-01T02:36:58;-3.20;99.90
30399;DHT22;17195;50.838;7.214;2023-03-01T02:39:30;-3.30;99.90
30399;DHT22;17195;50.838;7.214;2023-03-01T02:41:57;-3.30;99.90
30399;DHT22;17195;50.838;7.214;2023-03-01T02:44:24;-3.40;99.90
30399;DHT22;17195;50.838;7.214;2023-03-01T02:46:55;-3.40;99.90
30399;DHT22;17195;50.838;7.214;2023-03-01T02:49:28;-3.40;99.90
30399;DHT22;17195;50.838;7.214;2023-03-01T02:55:06;-3.40;99.90
30399;DHT22;17195;50.838;7.214;2023-03-01T02:57:35;-3.50;99.90
30399;DHT22;17195;50.838;7.214;2023-03-01T03:00:14;-3.50;99.90
30399;DHT22;17195;50.838;7.214;2023-03-01T03:02:48;-3.50;99.90
30399;DHT22;17195;50.838;7.214;2023-03-01T03:05:18;-3.60;99.90
30399;DHT22;17195;50.838;7.214;2023-03-01T03:07:46;-3.60;99.90
30399;DHT22;17195;50.838;7.214;2023-03-01T03:10:17;-3.60;99.90
30399;DHT22;17195;50.838;7.214;2023-03-01T03:12:48;-3.60;99.90
30399;DHT22;17195;50.838;7.214;2023-03-01T03:15:14;-3.60;99.90
30399;DHT22;17195;50.838;7.214;2023-03-01T03:17:41;-3.60;99.90
30399;DHT22;17195;50.838;7.214;2023-03-01T03:20:09;-3.60;99.90
30399;DHT22;17195;50.838;7.214;2023-03-01T03:22:39;-3.60;99.90
30399;DHT22;17195;50.838;7.214;2023-03-01T03:25:06;-3.60;99.90
30399;DHT22;17195;50.838;7.214;2023-03-01T03:27:39;-3.60;99.90
30399;DHT22;17195;50.838;7.214;2023-03-01T03:30:06;-3.60;99.90
30399;DHT22;17195;50.838;7.214;2023-03-01T03:32:37;-3.70;99.90
30399;DHT22;17195;50.838;7.214;2023-03-01T03:35:04;-3.80;99.90
30399;DHT22;17195;50.838;7.214;2023-03-01T03:37:36;-3.70;99.90
30399;DHT22;17195;50.838;7.214;2023-03-01T03:40:20;-3.80;99.90
30399;DHT22;17195;50.838;7.214;2023-03-01T03:42:46;-3.70;99.90
30399;DHT22;17195;50.838;7.214;2023-03-01T03:45:11;-3.70;99.90
30399;DHT22;17195;50.838;7.214;2023-03-01T03:47:37;-3.60;99.90
30399;DHT22;17195;50.838;7.214;2023-03-01T03:50:03;-3.70;99.90
30399;DHT22;17195;50.838;7.214;2023-03-01T03:52:28;-3.70;99.90
30399;DHT22;17195;50.838;7.214;2023-03-01T03:54:54;-3.60;99.90
30399;DHT22;17195;50.838;7.214;2023-03-01T03:57:19;-3.60;99.90
30399;DHT22;17195;50.838;7.214;2023-03-01T03:59:46;-3.70;99.90
30399;DHT22;17195;50.838;7.214;2023-03-01T04:02:11;-3.70;99.90
30399;DHT22;17195;50.838;7.214;2023-03-01T04:04:37;-3.70;99.90
30399;DHT22;17195;50.838;7.214;2023-03-01T04:07:02;-3.80;99.90
30399;DHT22;17195;50.838;7.214;2023-03-01T04:09:28;-3.80;99.90
30399;DHT22;17195;50.838;7.214;2023-03-01T04:11:55;-3.80;99.90
30399;DHT22;17195;50.838;7.214;2023-03-01T04:14:21;-3.80;99.90
30399;DHT22;17195;50.838;7.214;2023-03-01T04:16:46;-3.80;99.90
30399;DHT22;17195;50.838;7.214;2023-03-01T04:19:12;-3.80;99.90
30399;DHT22;17195;50.838;7.214;2023-03-01T04:21:37;-3.80;99.90
30399;DHT22;17195;50.838;7.214;2023-03-01T04:24:04;-3.80;99.90
30399;DHT22;17195;50.838;7.214;2023-03-01T04:26:29;-3.90;99.90
30399;DHT22;17195;50.838;7.214;2023-03-01T04:28:55;-3.90;99.90
30399;DHT22;17195;50.838;7.214;2023-03-01T04:31:21;-3.90;99.90
30399;DHT22;17195;50.838;7.214;2023-03-01T04:33:50;-3.90;99.90
30399;DHT22;17195;50.838;7.214;2023-03-01T04:36:24;-3.90;99.90
30399;DHT22;17195;50.838;7.214;2023-03-01T04:38:50;-3.90;99.90
30399;DHT22;17195;50.838;7.214;2023-03-01T04:41:18;-3.90;99.90
30399;DHT22;17195;50.838;7.214;2023-03-01T04:43:44;-3.90;99.90
30399;DHT22;17195;50.838;7.214;2023-03-01T04:46:13;-3.90;99.90
30399;DHT22;17195;50.838;7.214;2023-03-01T04:48:40;-3.90;99.90
30399;DHT22;17195;50.838;7.214;2023-03-01T04:51:07;-3.90;99.90
30399;DHT22;17195;50.838;7.214;2023-03-01T04:53:34;-4.00;99.90
30399;DHT22;17195;50.838;7.214;2023-03-01T04:56:02;-4.00;99.90
30399;DHT22;17195;50.838;7.214;2023-03-01T04:58:28;-4.00;99.90
30399;DHT22;17195;50.838;7.214;2023-03-01T05:00:54;-4.00;99.90
30399;DHT22;17195;50.838;7.214;2023-03-01T05:03:20;-4.00;99.90
30399;DHT22;17195;50.838;7.214;2023-03-01T05:05:48;-4.00;99.90
30399;DHT22;17195;50.838;7.214;2023-03-01T05:08:15;-4.10;99.90
30399;DHT22;17195;50.838;7.214;2023-03-01T05:10:48;-4.10;99.90
30399;DHT22;17195;50.838;7.214;2023-03-01T05:13:14;-4.10;99.90
30399;DHT22;17195;50.838;7.214;2023-03-01T05:15:53;-4.20;99.90
30399;DHT22;17195;50.838;7.214;2023-03-01T05:18:19;-4.20;99.90
30399;DHT22;17195;50.838;7.214;2023-03-01T05:20:45;-4.30;99.90
30399;DHT22;17195;50.838;7.214;2023-03-01T05:23:10;-4.30;99.90
30399;DHT22;17195;50.838;7.214;2023-03-01T05:25:36;-4.40;99.90
30399;DHT22;17195;50.838;7.214;2023-03-01T05:28:07;-4.40;99.90
30399;DHT22;17195;50.838;7.214;2023-03-01T05:30:36;-4.50;99.90
30399;DHT22;17195;50.838;7.214;2023-03-01T05:33:02;-4.40;99.90
30399;DHT22;17195;50.838;7.214;2023-03-01T05:35:27;-4.40;99.90
30399;DHT22;17195;50.838;7.214;2023-03-01T05:37:54;-4.40;99.90
30399;DHT22;17195;50.838;7.214;2023-03-01T05:40:22;-4.40;99.90
30399;DHT22;17195;50.838;7.214;2023-03-01T05:42:52;-4.30;99.90
30399;DHT22;17195;50.838;7.214;2023-03-01T05:45:18;-4.40;99.90
30399;DHT22;17195;50.838;7.214;2023-03-01T05:47:47;-4.40;99.90
30399;DHT22;17195;50.838;7.214;2023-03-01T05:50:15;-4.30;99.90
30399;DHT22;17195;50.838;7.214;2023-03-01T05:52:46;-4.30;99.90
30399;DHT22;17195;50.838;7.214;2023-03-01T05:55:11;-4.40;99.90
30399;DHT22;17195;50.838;7.214;2023-03-01T05:57:37;-4.40;99.90
30399;DHT22;17195;50.838;7.214;2023-03-01T06:00:03;-4.40;99.90
30399;DHT22;17195;50.838;7.214;2023-03-01T06:02:28;-4.50;99.90
30399;DHT22;17195;50.838;7.214;2023-03-01T06:04:55;-4.60;99.90
30399;DHT22;17195;50.838;7.214;2023-03-01T06:07:20;-4.60;99.90
30399;DHT22;17195;50.838;7.214;2023-03-01T06:09:46;-4.60;99.90
30399;DHT22;17195;50.838;7.214;2023-03-01T06:12:12;-4.60;99.90
30399;DHT22;17195;50.838;7.214;2023-03-01T06:14:37;-4.60;99.90
30399;DHT22;17195;50.838;7.214;2023-03-01T06:17:03;-4.60;99.90
30399;DHT22;17195;50.838;7.214;2023-03-01T06:19:28;-4.70;99.90
30399;DHT22;17195;50.838;7.214;2023-03-01T06:21:54;-4.70;99.90
30399;DHT22;17195;50.838;7.214;2023-03-01T06:24:19;-4.60;99.90
30399;DHT22;17195;50.838;7.214;2023-03-01T06:26:45;-4.60;99.90
30399;DHT22;17195;50.838;7.214;2023-03-01T06:29:10;-4.60;99.90
30399;DHT22;17195;50.838;7.214;2023-03-01T06:31:36;-4.60;99.90
30399;DHT22;17195;50.838;7.214;2023-03-01T06:34:02;-4.60;99.90
30399;DHT22;17195;50.838;7.214;2023-03-01T06:36:27;-4.60;99.90
30399;DHT22;17195;50.838;7.214;2023-03-01T06:38:53;-4.60;99.90
30399;DHT22;17195;50.838;7.214;2023-03-01T06:41:18;-4.50;99.90
30399;DHT22;17195;50.838;7.214;2023-03-01T06:43:44;-4.50;99.90
30399;DHT22;17195;50.838;7.214;2023-03-01T06:46:09;-4.40;99.90
30399;DHT22;17195;50.838;7.214;2023-03-01T06:48:35;-4.40;99.90
30399;DHT22;17195;50.838;7.214;2023-03-01T06:51:01;-4.40;99.90
30399;DHT22;17195;50.838;7.214;2023-03-01T06:53:28;-4.30;99.90
30399;DHT22;17195;50.838;7.214;2023-03-01T06:55:57;-4.30;99.90
30399;DHT22;17195;50.838;7.214;2023-03-01T06:58:23;-4.30;99.90
30399;DHT22;17195;50.838;7.214;2023-03-01T07:00:48;-4.30;99.90
30399;DHT22;17195;50.838;7.214;2023-03-01T07:03:14;-4.30;99.90
30399;DHT22;17195;50.838;7.214;2023-03-01T07:05:39;-4.20;99.90
30399;DHT22;17195;50.838;7.214;2023-03-01T07:08:05;-4.20;99.90
30399;DHT22;17195;50.838;7.214;2023-03-01T07:10:31;-4.10;99.90
30399;DHT22;17195;50.838;7.214;2023-03-01T07:12:57;-4.00;99.90
30399;DHT22;17195;50.838;7.214;2023-03-01T07:15:24;-3.80;99.90
30399;DHT22;17195;50.838;7.214;2023-03-01T07:17:50;-3.70;99.90
30399;DHT22;17195;50.838;7.214;2023-03-01T07:20:17;-3.50;99.90
30399;DHT22;17195;50.838;7.214;2023-03-01T07:22:43;-3.40;99.90
30399;DHT22;17195;50.838;7.214;2023-03-01T07:25:09;-3.30;99.90
30399;DHT22;17195;50.838;7.214;2023-03-01T07:27:35;-3.20;99.90
30399;DHT22;17195;50.838;7.214;2023-03-01T07:30:01;-3.10;99.90
30399;DHT22;17195;50.838;7.214;2023-03-01T07:32:27;-3.00;99.90
30399;DHT22;17195;50.838;7.214;2023-03-01T07:34:52;-2.90;99.90
30399;DHT22;17195;50.838;7.214;2023-03-01T07:37:18;-2.80;99.90
30399;DHT22;17195;50.838;7.214;2023-03-01T07:39:43;-2.60;99.90
30399;DHT22;17195;50.838;7.214;2023-03-01T07:42:09;-2.50;99.90
30399;DHT22;17195;50.838;7.214;2023-03-01T07:44:34;-2.30;99.90
30399;DHT22;17195;50.838;7.214;2023-03-01T07:47:00;-2.20;99.90
30399;DHT22;17195;50.838;7.214;2023-03-01T07:49:26;-2.10;99.90
30399;DHT22;17195;50.838;7.214;2023-03-01T07:51:52;-1.90;99.90
30399;DHT22;17195;50.838;7.214;2023-03-01T07:54:18;-1.80;99.90
30399;DHT22;17195;50.838;7.214;2023-03-01T07:56:43;-1.70;99.90
30399;DHT22;17195;50.838;7.214;2023-03-01T07:59:09;-1.60;99.90
30399;DHT22;17195;50.838;7.214;2023-03-01T08:01:35;-1.40;99.90
30399;DHT22;17195;50.838;7.214;2023-03-01T08:04:00;-1.30;99.90
30399;DHT22;17195;50.838;7.214;2023-03-01T08:06:27;-1.20;99.90
30399;DHT22;17195;50.838;7.214;2023-03-01T08:08:53;-1.00;99.90
30399;DHT22;17195;50.838;7.214;2023-03-01T08:11:20;-0.90;99.90
30399;DHT22;17195;50.838;7.214;2023-03-01T08:13:47;-0.80;99.90
30399;DHT22;17195;50.838;7.214;2023-03-01T08:16:14;-0.80;99.90
30399;DHT22;17195;50.838;7.214;2023-03-01T08:18:40;-0.70;99.90
30399;DHT22;17195;50.838;7.214;2023-03-01T08:21:08;-0.50;99.90
30399;DHT22;17195;50.838;7.214;2023-03-01T08:23:34;-0.40;99.90
30399;DHT22;17195;50.838;7.214;2023-03-01T08:26:11;-0.20;99.90
30399;DHT22;17195;50.838;7.214;2023-03-01T08:28:38;0.00;99.90
30399;DHT22;17195;50.838;7.214;2023-03-01T08:31:15;0.10;99.90
30399;DHT22;17195;50.838;7.214;2023-03-01T08:33:41;0.30;99.90
30399;DHT22;17195;50.838;7.214;2023-03-01T08:36:07;0.50;99.90
30399;DHT22;17195;50.838;7.214;2023-03-01T08:38:34;0.70;99.90
30399;DHT22;17195;50.838;7.214;2023-03-01T08:41:01;0.80;99.90
30399;DHT22;17195;50.838;7.214;2023-03-01T08:43:27;0.90;99.90
30399;DHT22;17195;50.838;7.214;2023-03-01T08:45:52;1.00;99.90
30399;DHT22;17195;50.838;7.214;2023-03-01T08:48:18;1.20;99.90
30399;DHT22;17195;50.838;7.214;2023-03-01T08:50:44;1.30;99.90
30399;DHT22;17195;50.838;7.214;2023-03-01T08:53:09;1.40;99.90
30399;DHT22;17195;50.838;7.214;2023-03-01T08:55:35;1.50;99.90
30399;DHT22;17195;50.838;7.214;2023-03-01T08:58:00;1.60;99.90
30399;DHT22;17195;50.838;7.214;2023-03-01T09:00:26;1.70;99.90
30399;DHT22;17195;50.838;7.214;2023-03-01T09:02:51;1.80;99.90
30399;DHT22;17195;50.838;7.214;2023-03-01T09:05:17;1.90;99.90
30399;DHT22;17195;50.838;7.214;2023-03-01T09:07:42;2.10;99.90
30399;DHT22;17195;50.838;7.214;2023-03-01T09:10:09;2.20;99.90
30399;DHT22;17195;50.838;7.214;2023-03-01T09:12:34;2.40;99.90
30399;DHT22;17195;50.838;7.214;2023-03-01T09:15:00;2.50;99.90
30399;DHT22;17195;50.838;7.214;2023-03-01T09:17:25;2.60;99.90
30399;DHT22;17195;50.838;7.214;2023-03-01T09:19:51;2.70;99.90
30399;DHT22;17195;50.838;7.214;2023-03-01T09:22:16;2.80;99.90
30399;DHT22;17195;50.838;7.214;2023-03-01T09:24:42;2.90;99.90
30399;DHT22;17195;50.838;7.214;2023-03-01T09:27:08;3.00;99.90
30399;DHT22;17195;50.838;7.214;2023-03-01T09:29:38;3.00;99.90
30399;DHT22;17195;50.838;7.214;2023-03-01T09:32:03;3.20;99.90
30399;DHT22;17195;50.838;7.214;2023-03-01T09:34:29;3.30;99.90
30399;DHT22;17195;50.838;7.214;2023-03-01T09:36:54;3.40;99.90
30399;DHT22;17195;50.838;7.214;2023-03-01T09:39:22;3.40;99.90
30399;DHT22;17195;50.838;7.214;2023-03-01T09:42:00;3.50;99.90
30399;DHT22;17195;50.838;7.214;2023-03-01T09:47:40;3.70;99.90
30399;DHT22;17195;50.838;7.214;2023-03-01T09:50:21;3.90;99.90
30399;DHT22;17195;50.838;7.214;2023-03-01T09:53:03;3.80;99.90
30399;DHT22;17195;50.838;7.214;2023-03-01T09:55:44;4.00;99.90
30399;DHT22;17195;50.838;7.214;2023-03-01T09:58:37;4.00;99.90
30399;DHT22;17195;50.838;7.214;2023-03-01T10:06:38;4.30;99.90
30399;DHT22;17195;50.838;7.214;2023-03-01T10:09:15;4.40;99.90
30399;DHT22;17195;50.838;7.214;2023-03-01T10:11:45;4.50;99.90
30399;DHT22;17195;50.838;7.214;2023-03-01T10:14:30;4.70;99.90
30399;DHT22;17195;50.838;7.214;2023-03-01T10:17:05;4.70;99.90
30399;DHT22;17195;50.838;7.214;2023-03-01T10:19:39;4.80;99.90
30399;DHT22;17195;50.838;7.214;2023-03-01T10:22:16;4.80;99.90
30399;DHT22;17195;50.838;7.214;2023-03-01T10:24:43;4.80;99.90
30399;DHT22;17195;50.838;7.214;2023-03-01T10:27:34;4.90;99.90
30399;DHT22;17195;50.838;7.214;2023-03-01T10:30:29;5.10;99.90
30399;DHT22;17195;50.838;7.214;2023-03-01T10:32:58;5.20;99.90
30399;DHT22;17195;50.838;7.214;2023-03-01T10:35:26;5.30;99.90
30399;DHT22;17195;50.838;7.214;2023-03-01T10:38:06;5.30;99.90
30399;DHT22;17195;50.838;7.214;2023-03-01T10:40:33;5.40;99.90
30399;DHT22;17195;50.838;7.214;2023-03-01T10:43:04;5.50;99.90
30399;DHT22;17195;50.838;7.214;2023-03-01T10:45:35;5.60;99.90
30399;DHT22;17195;50.838;7.214;2023-03-01T10:48:23;5.70;99.90
30399;DHT22;17195;50.838;7.214;2023-03-01T10:51:12;5.80;99.90
30399;DHT22;17195;50.838;7.214;2023-03-01T10:53:42;5.80;99.90
30399;DHT22;17195;50.838;7.214;2023-03-01T10:56:13;5.80;99.90
30399;DHT22;17195;50.838;7.214;2023-03-01T10:58:41;5.80;99.90
30399;DHT22;17195;50.838;7.214;2023-03-01T11:03:41;5.90;99.90
30399;DHT22;17195;50.838;7.214;2023-03-01T11:08:39;5.90;99.90
30399;DHT22;17195;50.838;7.214;2023-03-01T11:13:52;6.00;99.90
30399;DHT22;17195;50.838;7.214;2023-03-01T11:16:28;6.20;99.90
30399;DHT22;17195;50.838;7.214;2023-03-01T11:19:18;6.30;99.90
30399;DHT22;17195;50.838;7.214;2023-03-01T11:24:12;6.60;99.90
30399;DHT22;17195;50.838;7.214;2023-03-01T11:26:45;6.70;99.90
30399;DHT22;17195;50.838;7.214;2023-03-01T11:31:55;7.00;99.90
30399;DHT22;17195;50.838;7.214;2023-03-01T11:34:35;7.20;99.10
30399;DHT22;17195;50.838;7.214;2023-03-01T11:37:10;7.50;98.00
30399;DHT22;17195;50.838;7.214;2023-03-01T11:39:43;7.70;97.40
30399;DHT22;17195;50.838;7.214;2023-03-01T11:42:34;7.90;96.50
30399;DHT22;17195;50.838;7.214;2023-03-01T11:45:10;8.10;95.20
30399;DHT22;17195;50.838;7.214;2023-03-01T11:50:46;8.30;93.30
30399;DHT22;17195;50.838;7.214;2023-03-01T11:56:37;8.60;91.80
30399;DHT22;17195;50.838;7.214;2023-03-01T12:07:41;9.30;87.30
30399;DHT22;17195;50.838;7.214;2023-03-01T12:10:23;9.30;86.00
30399;DHT22;17195;50.838;7.214;2023-03-01T12:19:15;9.00;84.20
30399;DHT22;17195;50.838;7.214;2023-03-01T12:25:21;9.20;85.10
30399;DHT22;17195;50.838;7.214;2023-03-01T12:33:57;9.30;84.30
30399;DHT22;17195;50.838;7.214;2023-03-01T12:36:51;9.50;83.00
30399;DHT22;17195;50.838;7.214;2023-03-01T12:39:43;9.60;80.40
30399;DHT22;17195;50.838;7.214;2023-03-01T12:45:01;9.80;82.80
30399;DHT22;17195;50.838;7.214;2023-03-01T12:50:20;9.70;81.20
30399;DHT22;17195;50.838;7.214;2023-03-01T12:52:54;9.60;81.70
30399;DHT22;17195;50.838;7.214;2023-03-01T12:55:36;9.70;81.90
30399;DHT22;17195;50.838;7.214;2023-03-01T12:58:28;9.90;81.20
30399;DHT22;17195;50.838;7.214;2023-03-01T13:01:28;10.00;81.00
30399;DHT22;17195;50.838;7.214;2023-03-01T13:04:25;10.00;79.80
30399;DHT22;17195;50.838;7.214;2023-03-01T13:10:02;10.30;78.90
30399;DHT22;17195;50.838;7.214;2023-03-01T13:12:52;10.10;78.50
30399;DHT22;17195;50.838;7.214;2023-03-01T13:15:25;10.20;78.30
30399;DHT22;17195;50.838;7.214;2023-03-01T13:20:52;10.30;76.30
30399;DHT22;17195;50.838;7.214;2023-03-01T13:44:24;10.80;73.30
30399;DHT22;17195;50.838;7.214;2023-03-01T13:47:03;10.90;73.30
30399;DHT22;17195;50.838;7.214;2023-03-01T13:49:41;10.90;72.40
30399;DHT22;17195;50.838;7.214;2023-03-01T13:54:51;11.00;71.60
30399;DHT22;17195;50.838;7.214;2023-03-01T13:57:24;11.10;72.60
30399;DHT22;17195;50.838;7.214;2023-03-01T13:59:51;11.20;71.20
30399;DHT22;17195;50.838;7.214;2023-03-01T14:02:16;11.40;70.60
30399;DHT22;17195;50.838;7.214;2023-03-01T14:04:42;11.50;70.60
30399;DHT22;17195;50.838;7.214;2023-03-01T14:07:20;11.50;69.00
30399;DHT22;17195;50.838;7.214;2023-03-01T14:09:49;11.70;68.90
30399;DHT22;17195;50.838;7.214;2023-03-01T14:12:44;11.80;67.80
30399;DHT22;17195;50.838;7.214;2023-03-01T14:15:36;11.80;68.60
30399;DHT22;17195;50.838;7.214;2023-03-01T14:18:09;11.90;65.90
30399;DHT22;17195;50.838;7.214;2023-03-01T14:20:41;11.90;66.30
30399;DHT22;17195;50.838;7.214;2023-03-01T14:23:13;11.90;65.50
30399;DHT22;17195;50.838;7.214;2023-03-01T14:25:49;12.00;64.10
30399;DHT22;17195;50.838;7.214;2023-03-01T14:28:33;12.20;64.40
30399;DHT22;17195;50.838;7.214;2023-03-01T14:31:29;12.30;62.90
30399;DHT22;17195;50.838;7.214;2023-03-01T14:33:55;12.40;61.10
30399;DHT22;17195;50.838;7.214;2023-03-01T14:36:27;12.30;60.60
30399;DHT22;17195;50.838;7.214;2023-03-01T14:38:53;12.30;61.40
30399;DHT22;17195;50.838;7.214;2023-03-01T14:41:22;12.40;60.10
30399;DHT22;17195;50.838;7.214;2023-03-01T14:44:00;12.50;60.40
30399;DHT22;17195;50.838;7.214;2023-03-01T14:46:40;12.70;59.20
30399;DHT22;17195;50.838;7.214;2023-03-01T14:49:27;12.80;59.40
30399;DHT22;17195;50.838;7.214;2023-03-01T14:52:01;12.80;64.40
30399;DHT22;17195;50.838;7.214;2023-03-01T14:54:34;12.80;63.90
30399;DHT22;17195;50.838;7.214;2023-03-01T14:57:01;12.80;64.40
30399;DHT22;17195;50.838;7.214;2023-03-01T14:59:28;12.80;64.90
30399;DHT22;17195;50.838;7.214;2023-03-01T15:01:56;12.90;64.40
30399;DHT22;17195;50.838;7.214;2023-03-01T15:04:23;12.90;63.70
30399;DHT22;17195;50.838;7.214;2023-03-01T15:06:55;13.00;64.80
30399;DHT22;17195;50.838;7.214;2023-03-01T15:09:32;13.20;64.50
30399;DHT22;17195;50.838;7.214;2023-03-01T15:11:59;13.30;62.70
30399;DHT22;17195;50.838;7.214;2023-03-01T15:14:38;13.40;59.20
30399;DHT22;17195;50.838;7.214;2023-03-01T15:17:28;13.60;59.50
30399;DHT22;17195;50.838;7.214;2023-03-01T15:19:56;13.80;61.10
30399;DHT22;17195;50.838;7.214;2023-03-01T15:22:23;13.90;60.50
30399;DHT22;17195;50.838;7.214;2023-03-01T15:24:50;13.90;61.60
30399;DHT22;17195;50.838;7.214;2023-03-01T15:27:21;13.80;60.70
30399;DHT22;17195;50.838;7.214;2023-03-01T15:30:00;13.80;60.70
30399;DHT22;17195;50.838;7.214;2023-03-01T15:32:35;13.90;60.50
30399;DHT22;17195;50.838;7.214;2023-03-01T15:35:41;13.90;59.90
30399;DHT22;17195;50.838;7.214;2023-03-01T15:40:55;13.90;58.50
30399;DHT22;17195;50.838;7.214;2023-03-01T15:43:44;13.80;59.70
30399;DHT22;17195;50.838;7.214;2023-03-01T15:46:17;13.70;59.00
30399;DHT22;17195;50.838;7.214;2023-03-01T15:48:47;13.80;60.00
30399;DHT22;17195;50.838;7.214;2023-03-01T15:51:15;14.00;59.10
30399;DHT22;17195;50.838;7.214;2023-03-01T15:53:42;14.10;58.60
30399;DHT22;17195;50.838;7.214;2023-03-01T15:56:09;14.20;59.10
30399;DHT22;17195;50.838;7.214;2023-03-01T15:58:34;14.30;59.10
30399;DHT22;17195;50.838;7.214;2023-03-01T16:01:00;14.40;58.50
30399;DHT22;17195;50.838;7.214;2023-03-01T16:03:26;15.00;58.30
30399;DHT22;17195;50.838;7.214;2023-03-01T16:05:51;15.60;57.40
30399;DHT22;17195;50.838;7.214;2023-03-01T16:08:17;16.30;56.40
30399;DHT22;17195;50.838;7.214;2023-03-01T16:10:44;16.20;56.60
30399;DHT22;17195;50.838;7.214;2023-03-01T16:13:13;16.30;55.80
30399;DHT22;17195;50.838;7.214;2023-03-01T16:15:39;16.20;55.60
30399;DHT22;17195;50.838;7.214;2023-03-01T16:18:05;15.90;55.60
30399;DHT22;17195;50.838;7.214;2023-03-01T16:20:33;15.10;56.00
30399;DHT22;17195;50.838;7.214;2023-03-01T16:23:00;14.30;57.10
30399;DHT22;17195;50.838;7.214;2023-03-01T16:25:26;13.40;58.10
30399;DHT22;17195;50.838;7.214;2023-03-01T16:27:52;12.50;60.90
30399;DHT22;17195;50.838;7.214;2023-03-01T16:30:20;12.00;62.00
30399;DHT22;17195;50.838;7.214;2023-03-01T16:32:47;11.60;63.10
30399;DHT22;17195;50.838;7.214;2023-03-01T16:35:16;11.20;63.90
30399;DHT22;17195;50.838;7.214;2023-03-01T16:37:42;10.80;65.60
30399;DHT22;17195;50.838;7.214;2023-03-01T16:40:20;10.50;65.70
30399;DHT22;17195;50.838;7.214;2023-03-01T16:42:47;10.20;66.60
30399;DHT22;17195;50.838;7.214;2023-03-01T16:45:12;10.00;67.50
30399;DHT22;17195;50.838;7.214;2023-03-01T16:47:38;9.90;68.40
30399;DHT22;17195;50.838;7.214;2023-03-01T16:50:04;9.60;69.10
30399;DHT22;17195;50.838;7.214;2023-03-01T16:52:30;9.40;68.70
30399;DHT22;17195;50.838;7.214;2023-03-01T16:54:55;9.20;69.80
30399;DHT22;17195;50.838;7.214;2023-03-01T16:57:21;9.10;69.80
30399;DHT22;17195;50.838;7.214;2023-03-01T16:59:46;9.00;70.40
30399;DHT22;17195;50.838;7.214;2023-03-01T17:02:13;8.80;71.70
30399;DHT22;17195;50.838;7.214;2023-03-01T17:04:40;8.70;71.30
30399;DHT22;17195;50.838;7.214;2023-03-01T17:07:05;8.50;71.90
30399;DHT22;17195;50.838;7.214;2023-03-01T17:09:35;8.30;72.50
30399;DHT22;17195;50.838;7.214;2023-03-01T17:12:01;8.10;73.00
30399;DHT22;17195;50.838;7.214;2023-03-01T17:14:28;8.00;72.00
30399;DHT22;17195;50.838;7.214;2023-03-01T17:16:54;7.90;71.80
30399;DHT22;17195;50.838;7.214;2023-03-01T17:19:22;7.70;71.90
30399;DHT22;17195;50.838;7.214;2023-03-01T17:21:52;7.60;71.50
30399;DHT22;17195;50.838;7.214;2023-03-01T17:24:22;7.50;71.20